Saint Francis, South Dakota
Current Conditions -  °F | °C
As of 4:52 AM on Thursday 23 Oct 2014 (Local Time) from KVTN Reporting Station
Clear Clear  
Wind Chill: 31°   Ceiling: Unl
Heat Index: 35°   Visibility: 10mi
Dew Point: 33°   Wind: 5mph
Humidity: 92%   Direction: 230°SW
Pressure: 30.03"   Gusts: NA
Location:  43.14°N, 100.91°W
Report Text: KVTN 231052Z AUTO 23004KT 10SM CLR 02/01 A3003 RMK AO2 SLP173 T00170006
Loading
Personal Weather Stations






























Interactive Weather Map
Tropical Storm Tracking
New forecast layout! Learn more

10-Day Weather Forecast

Advertisements
Track Severe Weather on mobile